createdAt,value
2019-01-26T00:01:41.658Z,100386.36
2019-01-26T00:04:10.895Z,100384.11
2019-01-26T00:06:39.772Z,100384.44
2019-01-26T00:09:10.546Z,100389.58
2019-01-26T00:11:39.466Z,100382.25
2019-01-26T00:14:08.485Z,100380.02
2019-01-26T00:16:38.487Z,100381.72
2019-01-26T00:19:07.446Z,100381.27
2019-01-26T00:21:36.587Z,100385.49
2019-01-26T00:24:07.686Z,100379.83
2019-01-26T00:26:36.562Z,100375.00
2019-01-26T00:29:05.859Z,100371.12
2019-01-26T00:31:35.019Z,100372.81
2019-01-26T00:34:03.921Z,100370.10
2019-01-26T00:36:33.443Z,100367.99
2019-01-26T00:39:02.354Z,100358.44
2019-01-26T00:41:31.139Z,100361.76
2019-01-26T00:44:00.805Z,100359.00
2019-01-26T00:46:30.654Z,100352.23
2019-01-26T00:48:59.455Z,100351.70
2019-01-26T00:51:28.659Z,100340.41
2019-01-26T00:53:57.958Z,100337.77
2019-01-26T00:56:27.331Z,100330.80
2019-01-26T00:58:56.265Z,100328.61
2019-01-26T01:01:25.910Z,100329.91
2019-01-26T01:03:54.901Z,100333.30
2019-01-26T01:06:26.026Z,100331.06
2019-01-26T01:08:54.529Z,100320.24
2019-01-26T01:11:23.597Z,100312.42
2019-01-26T01:13:52.406Z,100302.86
2019-01-26T01:16:21.608Z,100306.70
2019-01-26T01:18:50.773Z,100303.17
2019-01-26T01:21:19.562Z,100295.79
2019-01-26T01:23:48.628Z,100294.25
2019-01-26T01:26:20.788Z,100285.27
2019-01-26T01:28:49.963Z,100281.28
2019-01-26T01:31:19.067Z,100281.19
2019-01-26T01:33:48.467Z,100282.74
2019-01-26T01:36:17.458Z,100284.03
2019-01-26T01:38:46.402Z,100282.86
2019-01-26T01:41:15.230Z,100293.81
2019-01-26T01:43:44.377Z,100286.95
2019-01-26T01:46:43.426Z,100282.50
2019-01-26T01:49:12.831Z,100279.91
2019-01-26T01:51:42.033Z,100286.89
2019-01-26T01:54:10.970Z,100286.05
2019-01-26T01:56:39.754Z,100285.59
2019-01-26T01:59:08.597Z,100283.80
2019-01-26T02:01:38.009Z,100271.13
2019-01-26T02:04:07.098Z,100261.04
2019-01-26T02:06:36.044Z,100266.42
2019-01-26T02:09:08.629Z,100264.16
2019-01-26T02:11:40.759Z,100261.16
2019-01-26T02:14:09.921Z,100259.50
2019-01-26T02:16:39.082Z,100264.53
2019-01-26T02:19:07.898Z,100251.38
2019-01-26T02:21:37.019Z,100252.25
2019-01-26T02:24:06.174Z,100245.98
2019-01-26T02:26:35.138Z,100243.78
2019-01-26T02:29:04.657Z,100248.13
2019-01-26T02:31:33.887Z,100254.80
2019-01-26T02:34:02.684Z,100257.48
2019-01-26T02:36:31.554Z,100257.48
2019-01-26T02:39:00.687Z,100248.00
2019-01-26T02:41:29.700Z,100250.31
2019-01-26T02:43:59.162Z,100240.73
2019-01-26T02:46:27.993Z,100245.13
2019-01-26T02:48:57.501Z,100255.66
2019-01-26T02:51:26.594Z,100257.20
2019-01-26T02:53:55.872Z,100242.82
2019-01-26T02:56:24.683Z,100247.41
2019-01-26T02:58:53.677Z,100252.12
2019-01-26T03:01:22.579Z,100239.53
2019-01-26T03:03:51.531Z,100235.36
2019-01-26T03:06:20.358Z,100233.27
2019-01-26T03:08:49.250Z,100222.21
2019-01-26T03:11:18.094Z,100225.63
2019-01-26T03:13:46.901Z,100231.31
2019-01-26T03:16:16.069Z,100226.73
2019-01-26T03:18:45.126Z,100225.39
2019-01-26T03:21:13.917Z,100221.77
2019-01-26T03:23:42.771Z,100233.20
2019-01-26T03:26:11.734Z,100227.36
2019-01-26T03:28:41.187Z,100232.50
2019-01-26T03:31:10.564Z,100229.17
2019-01-26T03:33:39.706Z,100233.16
2019-01-26T03:36:08.500Z,100237.23
2019-01-26T03:38:37.334Z,100229.09
2019-01-26T03:41:06.466Z,100233.90
2019-01-26T03:43:35.913Z,100240.41
2019-01-26T03:46:05.233Z,100239.16
2019-01-26T03:48:34.319Z,100249.18
2019-01-26T03:51:03.425Z,100249.42
2019-01-26T03:53:32.750Z,100236.67
2019-01-26T03:59:29.666Z,100236.67
2019-01-26T04:01:58.862Z,100237.80
2019-01-26T04:04:29.237Z,100246.12
2019-01-26T04:06:58.425Z,100250.94
2019-01-26T04:09:27.962Z,100238.55
2019-01-26T04:11:57.742Z,100248.64
2019-01-26T04:14:27.100Z,100242.80
2019-01-26T04:16:55.983Z,100243.71
2019-01-26T04:19:24.812Z,100239.95
2019-01-26T04:21:53.722Z,100232.02
2019-01-26T04:24:22.508Z,100230.32
2019-01-26T04:26:51.450Z,100220.25
2019-01-26T04:29:20.268Z,100228.56
2019-01-26T04:31:49.019Z,100221.45
2019-01-26T04:34:17.839Z,100227.45
2019-01-26T04:36:46.661Z,100229.88
2019-01-26T04:39:15.792Z,100222.23
2019-01-26T04:41:45.188Z,100219.91
2019-01-26T04:44:14.454Z,100217.59
2019-01-26T04:46:43.741Z,100220.06
2019-01-26T04:49:12.817Z,100226.91
2019-01-26T04:51:41.647Z,100221.96
2019-01-26T04:54:10.871Z,100217.23
2019-01-26T04:56:39.717Z,100207.42
2019-01-26T04:59:08.592Z,100205.94
2019-01-26T05:01:37.417Z,100199.59
2019-01-26T05:04:06.297Z,100202.88
2019-01-26T05:06:35.134Z,100204.59
2019-01-26T05:09:05.976Z,100203.98
2019-01-26T05:11:34.805Z,100204.98
2019-01-26T05:14:03.759Z,100202.88
2019-01-26T05:16:32.897Z,100198.30
2019-01-26T05:19:01.817Z,100203.09
2019-01-26T05:21:30.688Z,100201.62
2019-01-26T05:23:59.903Z,100197.95
2019-01-26T05:26:29.052Z,100195.27
2019-01-26T05:28:57.877Z,100195.37
2019-01-26T05:31:27.017Z,100201.45
2019-01-26T05:33:55.820Z,100195.82
2019-01-26T05:36:24.674Z,100189.39
2019-01-26T05:38:53.894Z,100192.31
2019-01-26T05:41:22.684Z,100194.13
2019-01-26T05:43:51.843Z,100192.22
2019-01-26T05:46:21.054Z,100191.54
2019-01-26T05:48:50.190Z,100185.41
2019-01-26T05:51:19.709Z,100186.02
2019-01-26T05:53:48.609Z,100195.97
2019-01-26T05:56:18.524Z,100194.58
2019-01-26T05:58:47.440Z,100192.61
2019-01-26T06:01:16.272Z,100192.05
2019-01-26T06:03:45.395Z,100185.00
2019-01-26T06:06:14.216Z,100193.28
2019-01-26T06:08:43.076Z,100180.49
2019-01-26T06:11:11.973Z,100180.85
2019-01-26T06:13:40.912Z,100175.59
2019-01-26T06:16:09.976Z,100173.05
2019-01-26T06:18:38.836Z,100168.20
2019-01-26T06:21:07.882Z,100166.92
2019-01-26T06:23:36.803Z,100172.91
2019-01-26T06:26:05.931Z,100176.57
2019-01-26T06:28:35.327Z,100175.67
2019-01-26T06:31:04.269Z,100170.98
2019-01-26T06:33:33.087Z,100166.47
2019-01-26T06:36:19.706Z,100162.23
2019-01-26T06:38:48.568Z,100158.85
2019-01-26T06:41:17.443Z,100157.66
2019-01-26T06:43:47.929Z,100155.65
2019-01-26T06:46:17.105Z,100158.95
2019-01-26T06:48:47.693Z,100162.17
2019-01-26T06:51:17.612Z,100146.34
2019-01-26T06:53:47.129Z,100148.81
2019-01-26T06:56:34.196Z,100148.17
2019-01-26T06:59:06.105Z,100146.66
2019-01-26T07:01:36.288Z,100148.03
2019-01-26T07:04:06.475Z,100148.88
2019-01-26T07:10:05.780Z,100147.19
2019-01-26T07:12:34.576Z,100143.84
2019-01-26T07:15:04.244Z,100145.50
2019-01-26T07:17:33.603Z,100152.09
2019-01-26T07:20:02.566Z,100144.89
2019-01-26T07:22:31.632Z,100152.97
2019-01-26T07:25:00.563Z,100157.69
2019-01-26T07:27:29.451Z,100158.47
2019-01-26T07:29:58.373Z,100152.41
2019-01-26T07:33:18.843Z,100157.62
2019-01-26T07:35:47.837Z,100152.86
2019-01-26T07:38:17.862Z,100147.58
2019-01-26T07:40:47.174Z,100154.55
2019-01-26T07:43:16.221Z,100151.56
2019-01-26T07:45:45.146Z,100148.95
2019-01-26T07:48:16.862Z,100151.56
2019-01-26T07:50:45.279Z,100151.66
2019-01-26T07:53:14.058Z,100149.98
2019-01-26T07:55:43.058Z,100149.34
2019-01-26T07:58:11.852Z,100148.95
2019-01-26T08:00:40.970Z,100143.06
2019-01-26T08:03:09.870Z,100148.74
2019-01-26T08:05:38.711Z,100139.05
2019-01-26T08:08:08.028Z,100137.48
2019-01-26T08:10:37.098Z,100136.64
2019-01-26T08:13:08.041Z,100136.64
2019-01-26T08:15:38.573Z,100130.16
2019-01-26T08:18:13.153Z,100127.70
2019-01-26T08:20:46.004Z,100133.58
2019-01-26T08:23:14.795Z,100136.30
2019-01-26T08:25:43.902Z,100131.81
2019-01-26T08:28:13.310Z,100130.68
2019-01-26T08:30:42.221Z,100127.30
2019-01-26T08:33:11.476Z,100125.53
2019-01-26T08:35:40.645Z,100131.98
2019-01-26T08:38:10.073Z,100124.05
2019-01-26T08:40:38.835Z,100126.27
2019-01-26T08:43:08.061Z,100122.80
2019-01-26T08:45:37.409Z,100118.16
2019-01-26T08:48:06.832Z,100119.08
2019-01-26T08:50:35.698Z,100115.44
2019-01-26T08:53:05.196Z,100115.55
2019-01-26T08:55:34.655Z,100124.81
2019-01-26T08:58:04.050Z,100123.09
2019-01-26T09:00:33.008Z,100122.86
2019-01-26T09:03:21.109Z,100119.41
2019-01-26T09:06:12.206Z,100119.33
2019-01-26T09:08:41.474Z,100129.50
2019-01-26T09:11:10.824Z,100123.70
2019-01-26T09:13:40.291Z,100126.62
2019-01-26T09:16:09.248Z,100130.16
2019-01-26T09:18:39.149Z,100121.41
2019-01-26T09:21:08.008Z,100129.63
2019-01-26T09:23:37.018Z,100132.63
2019-01-26T09:26:06.001Z,100131.13
2019-01-26T09:28:35.546Z,100125.45
2019-01-26T09:31:04.639Z,100126.22
2019-01-26T09:33:33.411Z,100120.95
2019-01-26T09:36:02.962Z,100125.72
2019-01-26T09:38:32.178Z,100122.19
2019-01-26T09:41:01.402Z,100126.41
2019-01-26T09:43:30.327Z,100121.12
2019-01-26T09:45:59.169Z,100125.77
2019-01-26T09:48:28.346Z,100122.31
2019-01-26T09:50:57.770Z,100122.23
2019-01-26T09:53:27.122Z,100114.79
2019-01-26T09:55:56.586Z,100111.72
2019-01-26T09:58:28.085Z,100117.64
2019-01-26T10:00:57.087Z,100115.37
2019-01-26T10:03:27.062Z,100121.05
2019-01-26T10:05:56.024Z,100119.74
2019-01-26T10:08:24.981Z,100113.91
2019-01-26T10:10:55.233Z,100120.29
2019-01-26T10:13:24.688Z,100112.06
2019-01-26T10:15:53.682Z,100115.33
2019-01-26T10:18:23.469Z,100112.95
2019-01-26T10:20:52.894Z,100115.72
2019-01-26T10:23:21.794Z,100118.59
2019-01-26T10:25:50.612Z,100108.11
2019-01-26T10:28:19.924Z,100117.79
2019-01-26T10:31:07.170Z,100103.31
2019-01-26T10:33:36.024Z,100114.52
2019-01-26T10:36:24.422Z,100120.67
2019-01-26T10:39:02.206Z,100115.21
2019-01-26T10:41:46.121Z,100115.21
2019-01-26T10:44:20.488Z,100115.09
2019-01-26T10:46:51.856Z,100121.16
2019-01-26T10:49:20.902Z,100121.63
2019-01-26T10:51:50.043Z,100114.63
2019-01-26T10:54:18.923Z,100117.09
2019-01-26T10:56:48.340Z,100113.94
2019-01-26T10:59:17.242Z,100113.05
2019-01-26T11:01:46.511Z,100110.20
2019-01-26T11:04:15.555Z,100103.75
2019-01-26T11:06:44.367Z,100107.52
2019-01-26T11:09:13.662Z,100108.70
2019-01-26T11:11:42.710Z,100111.46
2019-01-26T11:14:11.680Z,100106.58
2019-01-26T11:17:18.115Z,100101.57
2019-01-26T11:19:47.799Z,100107.56
2019-01-26T11:25:33.079Z,100081.36
2019-01-26T11:28:02.209Z,100100.45
2019-01-26T11:30:32.182Z,100094.83
2019-01-26T11:33:05.044Z,100093.06
2019-01-26T11:35:34.121Z,100098.30
2019-01-26T11:38:14.402Z,100099.91
2019-01-26T11:40:55.931Z,100100.91
2019-01-26T11:43:25.599Z,100091.52
2019-01-26T11:46:06.920Z,100090.00
2019-01-26T11:52:12.710Z,100085.16
2019-01-26T11:55:03.006Z,100082.55
2019-01-26T11:57:39.173Z,100085.16
2019-01-26T12:00:34.004Z,100077.70
2019-01-26T12:03:34.240Z,100071.70
2019-01-26T12:06:10.022Z,100066.78
2019-01-26T12:08:39.434Z,100065.47
2019-01-26T12:11:08.667Z,100063.23
2019-01-26T12:13:38.091Z,100062.02
2019-01-26T12:16:06.982Z,100059.78
2019-01-26T12:18:37.326Z,100058.47
2019-01-26T12:21:08.460Z,100063.58
2019-01-26T12:23:37.385Z,100058.02
2019-01-26T12:26:06.407Z,100068.80
2019-01-26T12:28:37.183Z,100062.27
2019-01-26T12:31:06.485Z,100065.27
2019-01-26T12:33:35.383Z,100060.72
2019-01-26T12:36:04.563Z,100063.03
2019-01-26T12:38:33.596Z,100057.26
2019-01-26T12:41:02.515Z,100054.50
2019-01-26T12:43:31.614Z,100052.73
2019-01-26T12:46:00.931Z,100056.95
2019-01-26T12:48:29.862Z,100051.27
2019-01-26T12:50:58.883Z,100041.19
2019-01-26T12:53:28.320Z,100042.96
2019-01-26T12:55:57.474Z,100044.34
2019-01-26T12:58:26.391Z,100033.34
2019-01-26T13:00:55.363Z,100038.58
2019-01-26T13:03:24.148Z,100037.27
2019-01-26T13:06:32.289Z,100031.11
2019-01-26T13:09:01.730Z,100031.11
2019-01-26T13:11:30.926Z,100028.83
2019-01-26T13:13:59.903Z,100031.36
2019-01-26T13:16:28.978Z,100031.83
2019-01-26T13:18:57.965Z,100022.21
2019-01-26T13:21:27.117Z,100028.28
2019-01-26T13:23:55.988Z,100019.52
2019-01-26T13:26:24.922Z,100021.12
2019-01-26T13:28:53.731Z,100019.43
2019-01-26T13:31:22.728Z,100019.73
2019-01-26T13:33:51.613Z,100011.97
2019-01-26T13:36:20.624Z,100013.60
2019-01-26T13:38:49.668Z,100015.89
2019-01-26T13:41:18.771Z,100010.98
2019-01-26T13:43:47.664Z,100006.19
2019-01-26T13:46:16.889Z,100005.67
2019-01-26T13:48:45.723Z,100005.21
2019-01-26T13:51:14.664Z,100009.43
2019-01-26T13:53:43.510Z,100006.35
2019-01-26T13:56:12.791Z,100005.67
2019-01-26T13:58:41.700Z,100002.13
2019-01-26T14:01:15.024Z,100002.22
2019-01-26T14:03:43.891Z,99994.42
2019-01-26T14:06:12.782Z,99996.52
2019-01-26T14:08:41.908Z,99992.05
2019-01-26T14:11:10.891Z,99994.67
2019-01-26T14:13:41.259Z,99996.52
2019-01-26T14:16:10.143Z,99982.90
2019-01-26T14:18:39.281Z,99982.14
2019-01-26T14:21:08.068Z,99985.27
2019-01-26T14:23:37.514Z,99982.23
2019-01-26T14:26:06.531Z,99975.69
2019-01-26T14:28:38.760Z,99970.89
2019-01-26T14:31:08.771Z,99966.59
2019-01-26T14:33:37.970Z,99965.83
2019-01-26T14:36:07.634Z,99961.98
2019-01-26T14:38:36.853Z,99961.52
2019-01-26T14:41:06.116Z,99969.38
2019-01-26T14:43:35.263Z,99966.38
2019-01-26T14:46:04.151Z,99974.59
2019-01-26T14:48:33.933Z,99968.61
2019-01-26T14:51:02.845Z,99967.69
2019-01-26T14:53:32.045Z,99965.07
2019-01-26T14:56:01.604Z,99962.45
2019-01-26T14:58:30.911Z,99958.16
2019-01-26T15:01:00.212Z,99958.16
2019-01-26T15:03:29.113Z,99946.01
2019-01-26T15:05:57.962Z,99938.16
2019-01-26T15:08:26.763Z,99937.38
2019-01-26T15:10:56.332Z,99937.45
2019-01-26T15:13:25.514Z,99944.28
2019-01-26T15:15:54.485Z,99938.84
2019-01-26T15:18:23.294Z,99935.69
2019-01-26T15:20:52.114Z,99935.30
2019-01-26T15:23:21.435Z,99934.76
2019-01-26T15:25:50.379Z,99927.47
2019-01-26T15:28:19.990Z,99928.77
2019-01-26T15:30:49.076Z,99931.30
2019-01-26T15:33:18.243Z,99923.54
2019-01-26T15:35:47.773Z,99921.86
2019-01-26T15:38:19.225Z,99924.55
2019-01-26T15:40:48.173Z,99913.25
2019-01-26T15:43:19.746Z,99913.25
2019-01-26T15:45:50.143Z,99914.18
2019-01-26T15:48:19.323Z,99906.48
2019-01-26T15:50:48.665Z,99905.55
2019-01-26T15:53:17.876Z,99907.78
2019-01-26T15:55:46.693Z,99902.94
2019-01-26T15:58:15.629Z,99901.63
2019-01-26T16:00:45.962Z,99898.63
2019-01-26T16:03:15.141Z,99899.19
2019-01-26T16:05:44.171Z,99894.71
2019-01-26T16:08:13.099Z,99892.65
2019-01-26T16:10:42.192Z,99893.20
2019-01-26T16:13:11.138Z,99890.12
2019-01-26T16:15:40.426Z,99891.89
2019-01-26T16:18:12.939Z,99884.42
2019-01-26T16:20:43.790Z,99885.19
2019-01-26T16:23:12.736Z,99880.59
2019-01-26T16:25:41.943Z,99881.52
2019-01-26T16:28:10.916Z,99873.59
2019-01-26T16:30:40.248Z,99877.52
2019-01-26T16:33:09.142Z,99879.75
2019-01-26T16:35:38.247Z,99869.30
2019-01-26T16:38:07.276Z,99865.52
2019-01-26T16:40:36.762Z,99863.73
2019-01-26T16:43:05.931Z,99861.91
2019-01-26T16:45:37.666Z,99862.34
2019-01-26T16:48:09.058Z,99860.75
2019-01-26T16:50:38.152Z,99862.52
2019-01-26T16:53:07.245Z,99866.27
2019-01-26T16:55:36.480Z,99854.67
2019-01-26T16:58:06.289Z,99851.05
2019-01-26T17:00:38.665Z,99849.28
2019-01-26T17:03:07.876Z,99845.36
2019-01-26T17:05:37.276Z,99840.69
2019-01-26T17:08:06.871Z,99839.75
2019-01-26T17:10:35.973Z,99842.31
2019-01-26T17:13:05.404Z,99832.84
2019-01-26T17:15:34.816Z,99830.14
2019-01-26T17:18:04.651Z,99830.09
2019-01-26T17:20:35.125Z,99819.63
2019-01-26T17:23:04.503Z,99823.14
2019-01-26T17:25:34.216Z,99817.22
2019-01-26T17:28:03.402Z,99808.63
2019-01-26T17:30:34.607Z,99805.63
2019-01-26T17:33:07.571Z,99808.16
2019-01-26T17:35:34.908Z,99789.13
2019-01-26T17:38:04.121Z,99804.53
2019-01-26T17:40:33.197Z,99796.69
2019-01-26T17:43:02.029Z,99793.52
2019-01-26T17:45:31.340Z,99788.70
2019-01-26T17:48:00.685Z,99787.13
2019-01-26T17:50:30.662Z,99777.29
2019-01-26T17:52:59.858Z,99776.82
2019-01-26T17:55:29.072Z,99771.33
2019-01-26T17:57:58.029Z,99780.02
2019-01-26T18:00:33.982Z,99773.33
2019-01-26T18:03:03.256Z,99779.55
2019-01-26T18:05:32.458Z,99770.96
2019-01-26T18:08:01.541Z,99760.50
2019-01-26T18:10:30.498Z,99764.65
2019-01-26T18:12:59.330Z,99750.50
2019-01-26T18:18:04.031Z,99747.57
2019-01-26T18:23:06.255Z,99745.27
2019-01-26T18:25:37.332Z,99741.96
2019-01-26T18:28:06.650Z,99742.55
2019-01-26T18:30:35.974Z,99745.52
2019-01-26T18:33:05.160Z,99738.16
2019-01-26T18:35:34.127Z,99736.78
2019-01-26T18:38:03.023Z,99734.05
2019-01-26T18:40:31.933Z,99737.06
2019-01-26T18:43:01.414Z,99730.92
2019-01-26T18:45:30.490Z,99724.66
2019-01-26T18:47:59.846Z,99723.23
2019-01-26T18:50:30.476Z,99717.92
2019-01-26T18:52:59.603Z,99719.79
2019-01-26T18:55:28.998Z,99707.19
2019-01-26T18:57:57.922Z,99704.22
2019-01-26T19:00:32.214Z,99700.28
2019-01-26T19:03:13.894Z,99703.26
2019-01-26T19:05:42.777Z,99700.84
2019-01-26T19:08:11.650Z,99693.34
2019-01-26T19:10:40.534Z,99689.41
2019-01-26T19:13:09.561Z,99684.66
2019-01-26T19:15:39.540Z,99692.05
2019-01-26T19:18:08.548Z,99689.27
2019-01-26T19:20:37.793Z,99685.98
2019-01-26T19:23:07.705Z,99686.66
2019-01-26T19:25:36.600Z,99689.27
2019-01-26T19:28:05.596Z,99678.87
2019-01-26T19:30:53.319Z,99674.94
2019-01-26T19:33:22.395Z,99674.66
2019-01-26T19:35:51.276Z,99661.95
2019-01-26T19:38:20.133Z,99662.78
2019-01-26T19:40:49.361Z,99657.84
2019-01-26T19:43:18.236Z,99663.81
2019-01-26T19:45:47.144Z,99663.05
2019-01-26T19:48:16.303Z,99656.70
2019-01-26T19:50:45.342Z,99654.28
2019-01-26T19:53:14.717Z,99650.72
2019-01-26T19:55:44.436Z,99638.00
2019-01-26T19:58:13.293Z,99636.02
2019-01-26T20:00:42.303Z,99632.92
2019-01-26T20:03:11.194Z,99631.81
2019-01-26T20:05:40.061Z,99631.24
2019-01-26T20:08:09.006Z,99624.53
2019-01-26T20:10:38.418Z,99619.28
2019-01-26T20:13:08.355Z,99616.67
2019-01-26T20:15:37.234Z,99612.73
2019-01-26T20:18:06.415Z,99611.80
2019-01-26T20:20:35.784Z,99603.84
2019-01-26T20:23:04.767Z,99594.09
2019-01-26T20:25:33.741Z,99594.56
2019-01-26T20:28:03.933Z,99601.12
2019-01-26T20:30:33.441Z,99589.16
2019-01-26T20:33:02.949Z,99598.50
2019-01-26T20:35:32.312Z,99585.03
2019-01-26T20:38:01.190Z,99573.24
2019-01-26T20:40:30.324Z,99562.03
2019-01-26T20:42:59.554Z,99561.82
2019-01-26T20:45:28.926Z,99561.09
2019-01-26T20:47:57.929Z,99562.59
2019-01-26T20:50:26.789Z,99552.22
2019-01-26T20:52:56.200Z,99563.54
2019-01-26T20:55:25.123Z,99555.84
2019-01-26T20:57:54.021Z,99541.27
2019-01-26T21:00:25.418Z,99534.16
2019-01-26T21:02:54.714Z,99537.34
2019-01-26T21:05:23.970Z,99537.81
2019-01-26T21:07:52.994Z,99533.42
2019-01-26T21:10:24.270Z,99532.58
2019-01-26T21:12:53.644Z,99536.77
2019-01-26T21:15:22.853Z,99528.72
2019-01-26T21:17:51.858Z,99522.54
2019-01-26T21:20:21.611Z,99520.31
2019-01-26T21:22:50.601Z,99517.50
2019-01-26T21:25:19.996Z,99523.11
2019-01-26T21:27:49.110Z,99518.61
2019-01-26T21:30:23.218Z,99519.18
2019-01-26T21:32:52.465Z,99513.58
2019-01-26T21:35:21.558Z,99511.33
2019-01-26T21:37:51.578Z,99504.52
2019-01-26T21:40:26.106Z,99500.38
2019-01-26T21:42:55.428Z,99494.41
2019-01-26T21:45:24.828Z,99491.52
2019-01-26T21:47:54.009Z,99485.97
2019-01-26T21:50:27.501Z,99479.25
2019-01-26T21:52:56.683Z,99475.79
2019-01-26T21:55:26.052Z,99476.70
2019-01-26T21:57:55.143Z,99475.69
2019-01-26T22:00:27.396Z,99481.40
2019-01-26T22:02:57.630Z,99472.41
2019-01-26T22:05:27.134Z,99463.81
2019-01-26T22:07:56.568Z,99459.61
2019-01-26T22:10:26.263Z,99463.06
2019-01-26T22:12:55.566Z,99455.75
2019-01-26T22:15:25.080Z,99455.85
2019-01-26T22:17:54.052Z,99445.58
2019-01-26T22:20:25.224Z,99447.73
2019-01-26T22:22:54.543Z,99452.23
2019-01-26T22:25:24.450Z,99448.01
2019-01-26T22:27:54.845Z,99436.52
2019-01-26T22:30:25.901Z,99433.90
2019-01-26T22:32:55.465Z,99436.16
2019-01-26T22:35:24.815Z,99428.30
2019-01-26T22:37:54.244Z,99425.28
2019-01-26T22:40:30.986Z,99425.67
2019-01-26T22:43:00.309Z,99428.37
2019-01-26T22:45:30.051Z,99420.98
2019-01-26T22:47:59.435Z,99412.76
2019-01-26T22:50:28.734Z,99415.74
2019-01-26T22:52:57.980Z,99408.25
2019-01-26T22:55:27.333Z,99405.20
2019-01-26T22:57:56.703Z,99397.78
2019-01-26T23:01:03.989Z,99392.28
2019-01-26T23:03:54.539Z,99398.93
2019-01-26T23:07:32.087Z,99384.53
2019-01-26T23:10:38.971Z,99389.03
2019-01-26T23:13:28.144Z,99375.47
2019-01-26T23:16:37.398Z,99366.01
2019-01-26T23:19:29.605Z,99358.16
2019-01-26T23:22:39.868Z,99349.20
2019-01-26T23:26:01.697Z,99348.00
2019-01-26T23:29:01.037Z,99344.91
2019-01-26T23:31:29.972Z,99336.50
2019-01-26T23:33:58.785Z,99331.55
2019-01-26T23:36:38.859Z,99324.72
2019-01-26T23:39:09.440Z,99324.72
2019-01-26T23:41:38.328Z,99318.64
2019-01-26T23:44:07.187Z,99319.58
2019-01-26T23:46:35.986Z,99311.84
2019-01-26T23:49:05.140Z,99302.67
2019-01-26T23:51:34.392Z,99294.09
2019-01-26T23:54:03.708Z,99293.72
2019-01-26T23:56:32.481Z,99291.65
2019-01-26T23:59:01.987Z,99281.55
